Panama City, FL

7:47 AM CDT on October 01, 2014 (GMT -0500)
Panama City Tyndall AFB | Change Station
CLOSE
Current Station
Airport
Location: Panama City Tyndall AFB,
Elevation: 16 ft
Nearby Weather Stations

Elev 16 ft 30.07 °N, 85.58 °W | Updated 49 minutes ago

Scattered Clouds
Scattered Clouds
69 °F
Feels Like 69 °F
N
4
Wind Variable Wind from NE

Today
High -- | Low -- °F
--% Chance of Precip.
Yesterday
High -- | Low -- °F
Precip. -- in
6:35 AM 6:27 PM
Waxing Crescent, 47% visible
Pressure 29.95 in
Visibility 10.0 miles
Clouds Scattered Clouds 4000 ft
Dew Point 69 °F
Humidity 100%
Rainfall 0.00 in
Snow Depth Not available.
UV 0 out of 12
Pollen 8.40 out of 12
Air Quality Not available.
Flu Activity Not available.
METAR KPAM 011158Z AUTO 05003KT 10SM SCT040 20/20 A2994 RMK AO2 SLP142 T02040204 10215 20200 52016 $

More Conditions Fewer Conditions

Pressure 29.95 in
Visibility 10.0 miles
Clouds Scattered Clouds 4000 ft
Dew Point 69 °F
Humidity 100%
Rainfall 0.00 in
Snow Depth Not available.
UV 0 out of 12
Pollen 8.40 out of 12
Air Quality Not available.
Flu Activity Not available.
METAR KPAM 011158Z AUTO 05003KT 10SM SCT040 20/20 A2994 RMK AO2 SLP142 T02040204 10215 20200 52016 $

More Conditions Fewer Conditions

10-Day Weather Forecast

Almanac

Astronomy

Oct. 01, 2014 Rise Set
Actual Time 6:35 AM CDT 6:27 PM CDT
Civil Twilight 6:11 AM CDT 6:51 PM CDT
Nautical Twilight 5:44 AM CDT 7:19 PM CDT
Astronomical Twilight 5:16 AM CDT 7:47 PM CDT
Moon 1:18 PM CDT No Moon Set
Length of Visible Light 12h 39m
Length of Day
11h 52m
Tomorrow will be 1m 48s shorter.
Waxing Crescent, 47% of the Moon is Illuminated
Today
Waxing Crescent
Oct 1
First Quarter
Oct 8
Full
Oct 15
Last Quarter
Oct 23
New

Today's Extremes

State Highs State Lows

Community

WunderPhotos

Upload Photos

1,757,917 photos uploaded!

Nearby

Snow Depth

Station Depth Elevation
No new snow has been reported.

Earthquake Activity

City Distance Mag. Time & Date
No recent earthquake activity has been reported nearby.
Minimum magnitude displayed is 2.5.

Coastal Water Temperatures

Place Temperature
Panama City, FL 79.0 °F
Panama City Beach, FL 80.1 °F
Apalachicola, FL 78.1 °F

Nearby Weather Stations